< < Back
Terminal Aerodrome Forecast


Current Version              Previous Versions:   1  2  3  4  5  6  7  8  9  

Terminal Aerodrome Forecast

291
FTUS42 KFFC 262202 AAB
TAFCSG
TAF AMD
KCSG 262202Z 2622/2718 16009KT P6SM VCSH SCT050 SCT080 BKN100
     FM270200 12003KT P6SM SCT090 BKN250
     FM271500 21005KT P6SM SCT035=

Latest METAR

095
SAUS70 KWBC 270100 RRU
MTRCSG
METAR KCSG 270151Z 11003KT 10SM CLR 23/21 A3006 RMK AO2 SLP174
T02330211


USA.gov is the U.S. government's official web portal to all federal, state and local government web resources and services.